createdAt,value
2023-05-24T00:01:37.842Z,3.00
2023-05-24T00:04:08.317Z,2.90
2023-05-24T00:06:38.420Z,3.95
2023-05-24T00:09:08.858Z,3.70
2023-05-24T00:11:39.004Z,3.78
2023-05-24T00:14:11.820Z,3.78
2023-05-24T00:16:41.999Z,3.40
2023-05-24T00:19:18.857Z,3.92
2023-05-24T00:21:49.330Z,3.33
2023-05-24T00:24:20.050Z,3.13
2023-05-24T00:26:50.201Z,4.07
2023-05-24T00:29:23.010Z,3.85
2023-05-24T00:31:53.435Z,3.55
2023-05-24T00:34:23.982Z,3.88
2023-05-24T00:36:54.101Z,3.60
2023-05-24T00:39:24.326Z,3.13
2023-05-24T00:41:54.687Z,4.43
2023-05-24T00:44:27.526Z,3.95
2023-05-24T00:46:58.039Z,2.90
2023-05-24T00:49:28.391Z,3.50
2023-05-24T00:51:58.840Z,4.47
2023-05-24T00:54:29.366Z,4.15
2023-05-24T00:57:00.087Z,4.28
2023-05-24T00:59:33.179Z,3.35
2023-05-24T01:02:03.706Z,3.63
2023-05-24T01:04:34.162Z,4.03
2023-05-24T01:07:14.736Z,3.40
2023-05-24T01:09:58.497Z,3.70
2023-05-24T01:12:36.198Z,4.53
2023-05-24T01:15:18.115Z,4.80
2023-05-24T01:17:54.797Z,4.43
2023-05-24T01:20:26.593Z,4.70
2023-05-24T01:23:27.432Z,4.72
2023-05-24T01:26:11.939Z,4.63
2023-05-24T01:31:16.148Z,4.65
2023-05-24T01:33:47.223Z,3.83
2023-05-24T01:36:17.601Z,4.95
2023-05-24T01:38:49.054Z,4.75
2023-05-24T01:41:27.335Z,4.85
2023-05-24T01:44:05.853Z,3.85
2023-05-24T01:46:40.293Z,4.13
2023-05-24T01:49:21.386Z,4.38
2023-05-24T01:51:56.988Z,4.63
2023-05-24T01:54:29.496Z,4.90
2023-05-24T01:57:01.866Z,5.05
2023-05-24T01:59:36.406Z,5.20
2023-05-24T02:02:06.822Z,5.88
2023-05-24T02:04:37.069Z,5.07
2023-05-24T02:07:07.565Z,5.30
2023-05-24T02:09:37.779Z,4.75
2023-05-24T02:12:09.018Z,4.45
2023-05-24T02:14:42.955Z,5.65
2023-05-24T02:17:13.426Z,3.97
2023-05-24T02:19:43.586Z,5.18
2023-05-24T02:22:13.988Z,4.85
2023-05-24T02:24:44.334Z,3.95
2023-05-24T02:27:14.724Z,6.13
2023-05-24T02:29:47.920Z,4.03
2023-05-24T02:32:18.248Z,4.88
2023-05-24T02:34:48.513Z,4.72
2023-05-24T02:37:18.720Z,5.97
2023-05-24T02:39:49.039Z,4.47
2023-05-24T02:42:19.204Z,4.88
2023-05-24T02:44:53.007Z,4.20
2023-05-24T02:47:23.703Z,4.28
2023-05-24T02:49:53.833Z,4.00
2023-05-24T02:52:24.222Z,3.92
2023-05-24T02:54:54.455Z,6.55
2023-05-24T02:57:24.767Z,4.63
2023-05-24T02:59:58.154Z,4.28
2023-05-24T03:02:28.890Z,5.70
2023-05-24T03:04:59.396Z,4.55
2023-05-24T03:07:29.677Z,5.10
2023-05-24T03:09:59.798Z,5.40
2023-05-24T03:12:30.019Z,4.15
2023-05-24T03:15:02.929Z,4.78
2023-05-24T03:17:33.447Z,7.38
2023-05-24T03:20:06.019Z,6.47
2023-05-24T03:22:36.593Z,13.43
2023-05-24T03:25:08.911Z,9.43
2023-05-24T03:27:39.239Z,6.97
2023-05-24T03:30:13.100Z,4.82
2023-05-24T03:32:43.387Z,6.35
2023-05-24T03:35:14.134Z,7.03
2023-05-24T03:37:44.356Z,7.22
2023-05-24T03:40:14.967Z,6.72
2023-05-24T03:42:45.354Z,7.35
2023-05-24T03:45:27.089Z,4.43
2023-05-24T03:48:05.388Z,4.30
2023-05-24T03:50:35.686Z,4.10
2023-05-24T03:53:05.923Z,6.57
2023-05-24T03:55:38.880Z,4.60
2023-05-24T03:58:09.263Z,6.65
2023-05-24T04:00:42.297Z,5.55
2023-05-24T04:03:12.972Z,4.88
2023-05-24T04:05:43.485Z,4.38
2023-05-24T04:08:15.260Z,5.30
2023-05-24T04:10:45.723Z,4.28
2023-05-24T04:13:16.692Z,4.80
2023-05-24T04:15:49.407Z,4.35
2023-05-24T04:18:19.712Z,4.03
2023-05-24T04:20:50.227Z,4.30
2023-05-24T04:23:20.778Z,4.38
2023-05-24T04:25:50.943Z,4.68
2023-05-24T04:28:22.503Z,3.40
2023-05-24T04:30:56.412Z,4.60
2023-05-24T04:33:26.695Z,5.25
2023-05-24T04:35:56.888Z,4.00
2023-05-24T04:38:30.020Z,4.30
2023-05-24T04:41:00.161Z,5.72
2023-05-24T04:43:30.970Z,5.63
2023-05-24T04:46:03.892Z,3.50
2023-05-24T04:48:34.144Z,4.50
2023-05-24T04:51:04.642Z,4.75
2023-05-24T04:53:34.822Z,4.35
2023-05-24T04:56:04.941Z,4.20
2023-05-24T04:58:36.686Z,4.78
2023-05-24T05:01:10.674Z,5.07
2023-05-24T05:03:41.468Z,4.82
2023-05-24T05:06:11.789Z,5.75
2023-05-24T05:08:41.982Z,5.32
2023-05-24T05:11:12.383Z,4.45
2023-05-24T05:13:42.796Z,4.55
2023-05-24T05:16:15.764Z,4.63
2023-05-24T05:18:46.352Z,5.30
2023-05-24T05:21:16.787Z,5.60
2023-05-24T05:23:47.053Z,5.10
2023-05-24T05:26:17.176Z,8.85
2023-05-24T05:28:47.602Z,8.52
2023-05-24T05:31:20.347Z,5.38
2023-05-24T05:33:50.703Z,5.97
2023-05-24T05:36:20.938Z,6.03
2023-05-24T05:38:51.084Z,5.63
2023-05-24T05:41:22.375Z,4.15
2023-05-24T05:43:52.674Z,4.97
2023-05-24T05:46:25.524Z,4.90
2023-05-24T05:48:55.822Z,3.85
2023-05-24T05:51:26.007Z,3.45
2023-05-24T05:53:56.587Z,3.70
2023-05-24T05:56:27.903Z,4.18
2023-05-24T05:59:01.170Z,3.67
2023-05-24T06:01:33.957Z,3.97
2023-05-24T06:04:04.399Z,3.92
2023-05-24T06:06:34.647Z,3.92
2023-05-24T06:09:08.255Z,4.15
2023-05-24T06:11:39.208Z,3.80
2023-05-24T06:14:09.369Z,3.72
2023-05-24T06:16:42.342Z,3.40
2023-05-24T06:19:12.783Z,2.95
2023-05-24T06:21:47.992Z,4.65
2023-05-24T06:24:20.830Z,3.45
2023-05-24T06:26:51.694Z,3.70
2023-05-24T06:29:23.078Z,4.35
2023-05-24T06:31:55.891Z,3.50
2023-05-24T06:34:26.174Z,3.00
2023-05-24T06:36:56.675Z,2.95
2023-05-24T06:39:26.978Z,2.97
2023-05-24T06:41:57.786Z,3.28
2023-05-24T06:44:34.322Z,2.92
2023-05-24T06:47:07.735Z,2.80
2023-05-24T06:49:38.712Z,2.92
2023-05-24T06:52:10.247Z,3.22
2023-05-24T06:54:40.776Z,3.10
2023-05-24T06:57:11.117Z,3.22
2023-05-24T06:59:41.322Z,3.28
2023-05-24T07:02:14.098Z,3.13
2023-05-24T07:04:44.290Z,3.08
2023-05-24T07:07:15.354Z,4.13
2023-05-24T07:12:16.889Z,3.05
2023-05-24T07:14:47.132Z,2.90
2023-05-24T07:17:19.995Z,2.45
2023-05-24T07:19:51.378Z,3.42
2023-05-24T07:22:22.786Z,3.92
2023-05-24T07:24:53.019Z,3.53
2023-05-24T07:27:23.226Z,3.10
2023-05-24T07:29:53.438Z,3.53
2023-05-24T07:32:26.296Z,3.28
2023-05-24T07:34:56.564Z,3.35
2023-05-24T07:37:27.206Z,3.60
2023-05-24T07:39:57.422Z,3.15
2023-05-24T07:42:27.691Z,3.92
2023-05-24T07:44:58.088Z,2.95
2023-05-24T07:47:30.864Z,3.45
2023-05-24T07:50:01.045Z,2.58
2023-05-24T07:52:31.560Z,2.85
2023-05-24T07:55:02.271Z,2.60
2023-05-24T07:57:33.215Z,2.88
2023-05-24T08:00:15.009Z,2.80
2023-05-24T08:02:48.361Z,2.42
2023-05-24T08:05:19.616Z,2.45
2023-05-24T08:07:49.779Z,3.03
2023-05-24T08:10:20.217Z,3.03
2023-05-24T08:12:51.688Z,2.70
2023-05-24T08:15:21.926Z,2.80
2023-05-24T08:17:54.733Z,2.58
2023-05-24T08:20:25.023Z,2.67
2023-05-24T08:22:55.409Z,2.60
2023-05-24T08:25:26.402Z,3.50
2023-05-24T08:27:57.504Z,3.10
2023-05-24T08:30:28.016Z,2.80
2023-05-24T08:33:01.511Z,2.50
2023-05-24T08:35:31.952Z,2.90
2023-05-24T08:38:02.097Z,3.40
2023-05-24T08:40:32.489Z,3.03
2023-05-24T08:43:03.922Z,2.88
2023-05-24T08:45:36.055Z,3.38
2023-05-24T08:48:09.587Z,2.95
2023-05-24T08:50:39.980Z,3.33
2023-05-24T08:53:11.699Z,3.75
2023-05-24T08:55:44.227Z,3.03
2023-05-24T08:58:14.711Z,2.95
2023-05-24T09:00:44.901Z,3.45
2023-05-24T09:03:18.467Z,3.13
2023-05-24T09:05:49.303Z,2.75
2023-05-24T09:08:20.883Z,4.28
2023-05-24T09:10:55.621Z,2.83
2023-05-24T09:13:27.546Z,3.83
2023-05-24T09:15:58.030Z,3.03
2023-05-24T09:18:31.067Z,3.03
2023-05-24T09:21:01.470Z,3.03
2023-05-24T09:23:31.704Z,3.63
2023-05-24T09:28:35.969Z,3.72
2023-05-24T09:31:08.082Z,2.75
2023-05-24T09:33:42.836Z,2.85
2023-05-24T09:36:14.159Z,3.17
2023-05-24T09:38:44.309Z,2.47
2023-05-24T09:41:15.002Z,2.95
2023-05-24T09:43:52.456Z,7.18
2023-05-24T09:46:23.336Z,3.65
2023-05-24T09:49:04.123Z,6.82
2023-05-24T09:51:34.385Z,6.85
2023-05-24T09:54:05.480Z,2.50
2023-05-24T09:56:37.626Z,3.83
2023-05-24T09:59:11.413Z,2.92
2023-05-24T10:01:41.797Z,4.22
2023-05-24T10:04:15.029Z,3.25
2023-05-24T10:06:46.132Z,3.85
2023-05-24T10:09:16.504Z,2.58
2023-05-24T10:11:46.731Z,3.20
2023-05-24T10:14:18.247Z,4.03
2023-05-24T10:16:48.924Z,3.30
2023-05-24T10:19:22.042Z,4.88
2023-05-24T10:21:53.096Z,3.10
2023-05-24T10:24:28.829Z,3.40
2023-05-24T10:27:02.623Z,4.53
2023-05-24T10:29:38.032Z,3.10
2023-05-24T10:32:09.287Z,3.05
2023-05-24T10:34:43.122Z,3.92
2023-05-24T10:37:13.576Z,2.97
2023-05-24T10:42:18.258Z,3.03
2023-05-24T10:44:48.521Z,3.00
2023-05-24T10:47:19.078Z,3.70
2023-05-24T10:49:57.008Z,5.10
2023-05-24T10:52:37.707Z,3.38
2023-05-24T10:55:10.695Z,3.10
2023-05-24T10:57:43.005Z,3.30
2023-05-24T11:00:35.702Z,4.35
2023-05-24T11:03:23.949Z,2.35
2023-05-24T11:05:58.408Z,3.13
2023-05-24T11:08:33.597Z,5.10
2023-05-24T11:13:51.240Z,3.97
2023-05-24T11:16:38.606Z,3.65
2023-05-24T11:19:16.610Z,3.80
2023-05-24T11:21:50.993Z,3.17
2023-05-24T11:24:22.435Z,3.17
2023-05-24T11:26:54.219Z,3.95
2023-05-24T11:29:25.453Z,3.13
2023-05-24T11:31:57.904Z,3.53
2023-05-24T11:34:28.403Z,3.50
2023-05-24T11:39:34.875Z,4.55
2023-05-24T11:42:08.332Z,2.42
2023-05-24T11:44:40.948Z,3.05
2023-05-24T11:47:12.224Z,2.63
2023-05-24T11:49:42.423Z,2.90
2023-05-24T11:52:15.134Z,3.17
2023-05-24T11:54:45.308Z,2.83
2023-05-24T11:57:15.800Z,2.55
2023-05-24T12:02:15.973Z,2.78
2023-05-24T12:04:48.472Z,2.58
2023-05-24T12:07:21.316Z,2.50
2023-05-24T12:09:51.544Z,2.47
2023-05-24T12:12:30.882Z,2.60
2023-05-24T12:15:12.855Z,3.40
2023-05-24T12:17:43.365Z,3.70
2023-05-24T12:20:14.735Z,2.78
2023-05-24T12:22:55.062Z,2.97
2023-05-24T12:25:27.436Z,2.55
2023-05-24T12:27:58.903Z,3.15
2023-05-24T12:30:30.545Z,2.90
2023-05-24T12:33:01.205Z,2.70
2023-05-24T12:35:31.993Z,2.85
2023-05-24T12:38:04.967Z,2.50
2023-05-24T12:40:36.768Z,2.22
2023-05-24T12:43:08.028Z,2.55
2023-05-24T12:45:38.263Z,2.50
2023-05-24T12:48:08.934Z,2.65
2023-05-24T12:50:39.181Z,2.90
2023-05-24T12:53:11.950Z,2.70
2023-05-24T12:55:43.645Z,2.45
2023-05-24T12:58:16.657Z,2.17
2023-05-24T13:00:50.471Z,2.33
2023-05-24T13:03:20.935Z,2.85
2023-05-24T13:05:51.392Z,2.65
2023-05-24T13:08:24.473Z,2.67
2023-05-24T13:10:54.683Z,2.08
2023-05-24T13:13:24.869Z,2.28
2023-05-24T13:15:55.650Z,3.03
2023-05-24T13:18:26.469Z,1.92
2023-05-24T13:20:57.923Z,2.67
2023-05-24T13:23:31.023Z,3.00
2023-05-24T13:26:01.936Z,2.45
2023-05-24T13:28:33.730Z,2.17
2023-05-24T13:31:04.154Z,2.70
2023-05-24T13:33:34.786Z,2.53
2023-05-24T13:41:09.015Z,2.40
2023-05-24T13:43:39.288Z,2.85
2023-05-24T13:46:10.357Z,2.60
2023-05-24T13:48:42.561Z,2.92
2023-05-24T13:51:12.856Z,2.88
2023-05-24T13:53:46.577Z,2.45
2023-05-24T13:56:17.244Z,2.53
2023-05-24T13:58:47.813Z,2.05
2023-05-24T14:03:48.005Z,2.50
2023-05-24T14:06:18.418Z,3.13
2023-05-24T14:08:51.374Z,2.28
2023-05-24T14:11:22.606Z,3.28
2023-05-24T14:16:27.914Z,3.28
2023-05-24T14:18:58.353Z,2.95
2023-05-24T14:21:28.832Z,2.72
2023-05-24T14:24:01.703Z,3.03
2023-05-24T14:26:32.525Z,5.15
2023-05-24T14:29:02.676Z,2.35
2023-05-24T14:31:34.540Z,3.10
2023-05-24T14:34:04.794Z,4.80
2023-05-24T14:36:35.106Z,3.40
2023-05-24T14:39:08.590Z,2.72
2023-05-24T14:41:38.885Z,2.50
2023-05-24T14:44:09.024Z,2.85
2023-05-24T14:46:39.317Z,3.97
2023-05-24T14:49:09.551Z,2.75
2023-05-24T14:51:39.995Z,2.47
2023-05-24T14:54:14.498Z,2.38
2023-05-24T14:56:44.703Z,2.90
2023-05-24T14:59:14.938Z,3.05
2023-05-24T15:01:47.913Z,3.33
2023-05-24T15:04:18.093Z,2.42
2023-05-24T15:06:48.411Z,3.00
2023-05-24T15:09:21.487Z,2.75
2023-05-24T15:11:51.735Z,3.97
2023-05-24T15:14:22.100Z,3.15
2023-05-24T15:16:52.422Z,3.25
2023-05-24T15:19:22.795Z,5.13
2023-05-24T15:21:53.034Z,4.28
2023-05-24T15:24:25.814Z,3.35
2023-05-24T15:26:56.257Z,3.25
2023-05-24T15:29:26.451Z,3.28
2023-05-24T15:31:58.854Z,2.45
2023-05-24T15:34:29.006Z,3.30
2023-05-24T15:36:59.392Z,3.55
2023-05-24T15:39:32.208Z,2.83
2023-05-24T15:42:02.885Z,2.60
2023-05-24T15:47:03.982Z,3.13
2023-05-24T15:49:34.320Z,3.13
2023-05-24T15:52:05.369Z,2.47
2023-05-24T15:54:38.421Z,2.83
2023-05-24T15:57:09.193Z,2.90
2023-05-24T15:59:39.692Z,2.88
2023-05-24T16:02:10.200Z,3.38
2023-05-24T16:04:40.472Z,2.55
2023-05-24T16:07:10.705Z,5.20
2023-05-24T16:09:43.477Z,3.97
2023-05-24T16:12:13.685Z,2.92
2023-05-24T16:14:43.850Z,3.28
2023-05-24T16:17:15.259Z,4.88
2023-05-24T16:19:46.584Z,4.97
2023-05-24T16:22:16.985Z,4.88
2023-05-24T16:24:49.751Z,3.47
2023-05-24T16:27:19.984Z,3.17
2023-05-24T16:29:50.416Z,3.63
2023-05-24T16:32:20.879Z,2.97
2023-05-24T16:34:56.056Z,3.00
2023-05-24T16:37:27.376Z,3.00
2023-05-24T16:40:00.216Z,3.53
2023-05-24T16:42:30.419Z,3.58
2023-05-24T16:45:00.821Z,2.78
2023-05-24T16:47:32.461Z,2.88
2023-05-24T16:50:04.162Z,2.83
2023-05-24T16:52:34.575Z,3.22
2023-05-24T16:55:08.140Z,2.38
2023-05-24T16:57:38.752Z,3.15
2023-05-24T17:02:40.375Z,3.78
2023-05-24T17:05:11.464Z,3.30
2023-05-24T17:07:43.035Z,3.25
2023-05-24T17:10:15.819Z,4.28
2023-05-24T17:12:47.678Z,3.60
2023-05-24T17:15:18.136Z,3.15
2023-05-24T17:17:48.752Z,3.53
2023-05-24T17:20:19.164Z,3.13
2023-05-24T17:22:49.732Z,3.25
2023-05-24T17:25:22.720Z,4.07
2023-05-24T17:27:52.869Z,3.30
2023-05-24T17:30:23.154Z,2.67
2023-05-24T17:32:53.764Z,3.53
2023-05-24T17:35:23.929Z,3.50
2023-05-24T17:37:54.162Z,3.15
2023-05-24T17:40:27.004Z,3.13
2023-05-24T17:42:57.531Z,3.15
2023-05-24T17:45:27.862Z,2.55
2023-05-24T17:47:58.912Z,2.78
2023-05-24T17:50:29.345Z,2.70
2023-05-24T17:53:00.197Z,2.75
2023-05-24T17:55:33.062Z,3.17
2023-05-24T17:58:04.177Z,3.28
2023-05-24T18:00:34.469Z,4.25
2023-05-24T18:03:04.815Z,2.88
2023-05-24T18:05:35.275Z,2.50
2023-05-24T18:08:05.973Z,3.03
2023-05-24T18:10:38.779Z,2.92
2023-05-24T18:13:11.351Z,3.65
2023-05-24T18:15:41.896Z,4.03
2023-05-24T18:18:12.437Z,2.50
2023-05-24T18:20:42.830Z,5.43
2023-05-24T18:23:13.156Z,3.42
2023-05-24T18:25:46.608Z,2.60
2023-05-24T18:28:17.042Z,2.47
2023-05-24T18:30:47.278Z,3.10
2023-05-24T18:33:17.668Z,2.65
2023-05-24T18:35:48.338Z,1.92
2023-05-24T18:38:18.835Z,2.08
2023-05-24T18:40:51.600Z,2.83
2023-05-24T18:43:22.175Z,2.97
2023-05-24T18:45:52.278Z,2.15
2023-05-24T18:48:22.668Z,2.13
2023-05-24T18:50:52.809Z,2.45
2023-05-24T18:53:22.997Z,3.33
2023-05-24T18:55:55.757Z,2.08
2023-05-24T18:58:25.991Z,3.30
2023-05-24T19:00:56.348Z,2.63
2023-05-24T19:03:27.300Z,2.42
2023-05-24T19:05:57.505Z,2.17
2023-05-24T19:08:27.814Z,2.20
2023-05-24T19:11:00.621Z,2.08
2023-05-24T19:13:30.855Z,2.50
2023-05-24T19:16:03.287Z,2.55
2023-05-24T19:18:33.560Z,3.40
2023-05-24T19:21:03.816Z,2.90
2023-05-24T19:23:34.210Z,2.40
2023-05-24T19:26:06.991Z,3.28
2023-05-24T19:28:40.445Z,2.05
2023-05-24T19:31:10.849Z,2.85
2023-05-24T19:33:59.204Z,2.47
2023-05-24T19:36:31.525Z,2.10
2023-05-24T19:39:01.981Z,2.25
2023-05-24T19:41:35.030Z,2.22
2023-05-24T19:44:05.298Z,2.40
2023-05-24T19:46:35.564Z,2.30
2023-05-24T19:49:06.125Z,2.35
2023-05-24T19:51:37.690Z,2.53
2023-05-24T19:54:09.479Z,2.38
2023-05-24T19:56:42.422Z,2.13
2023-05-24T19:59:12.699Z,2.13
2023-05-24T20:01:43.129Z,2.53
2023-05-24T20:04:14.274Z,2.63
2023-05-24T20:06:44.784Z,2.80
2023-05-24T20:09:18.963Z,2.53
2023-05-24T20:11:52.002Z,2.42
2023-05-24T20:14:23.601Z,3.70
2023-05-24T20:16:54.025Z,1.95
2023-05-24T20:19:24.580Z,2.55
2023-05-24T20:21:54.940Z,2.53
2023-05-24T20:24:25.355Z,2.33
2023-05-24T20:26:58.306Z,2.30
2023-05-24T20:29:28.740Z,2.80
2023-05-24T20:31:59.223Z,2.00
2023-05-24T20:34:29.686Z,4.35
2023-05-24T20:37:00.113Z,3.33
2023-05-24T20:39:30.500Z,2.17
2023-05-24T20:42:03.875Z,2.75
2023-05-24T20:44:34.346Z,2.40
2023-05-24T20:47:04.720Z,2.08
2023-05-24T20:49:35.136Z,1.88
2023-05-24T20:52:05.592Z,3.05
2023-05-24T20:54:36.446Z,3.17
2023-05-24T20:57:09.558Z,2.15
2023-05-24T20:59:39.992Z,2.40
2023-05-24T21:02:10.865Z,2.50
2023-05-24T21:07:11.328Z,2.30
2023-05-24T21:09:41.873Z,2.67
2023-05-24T21:12:14.889Z,2.58
2023-05-24T21:14:45.280Z,1.63
2023-05-24T21:17:15.794Z,2.83
2023-05-24T21:19:46.331Z,2.72
2023-05-24T21:22:17.428Z,2.58
2023-05-24T21:24:47.895Z,3.15
2023-05-24T21:27:21.451Z,2.30
2023-05-24T21:29:51.923Z,2.10
2023-05-24T21:32:22.333Z,2.83
2023-05-24T21:34:52.819Z,2.25
2023-05-24T21:37:23.167Z,2.25
2023-05-24T21:39:53.928Z,2.92
2023-05-24T21:42:26.944Z,2.97
2023-05-24T21:44:57.501Z,2.33
2023-05-24T21:47:27.885Z,2.65
2023-05-24T21:49:58.396Z,2.50
2023-05-24T21:52:28.802Z,1.92
2023-05-24T21:54:59.239Z,2.50
2023-05-24T21:57:32.196Z,2.35
2023-05-24T22:00:02.737Z,2.90
2023-05-24T22:02:33.305Z,3.50
2023-05-24T22:05:05.441Z,2.20
2023-05-24T22:07:37.270Z,2.58
2023-05-24T22:10:08.308Z,2.28
2023-05-24T22:15:12.166Z,2.05
2023-05-24T22:17:42.904Z,2.08
2023-05-24T22:20:14.293Z,2.22
2023-05-24T22:22:48.543Z,3.35
2023-05-24T22:25:20.909Z,2.38
2023-05-24T22:27:51.744Z,2.30
2023-05-24T22:30:25.006Z,3.47
2023-05-24T22:32:56.503Z,2.95
2023-05-24T22:35:26.905Z,2.13
2023-05-24T22:37:57.292Z,3.40
2023-05-24T22:40:27.778Z,2.42
2023-05-24T22:42:58.183Z,2.33
2023-05-24T22:45:31.273Z,2.72
2023-05-24T22:48:03.599Z,2.58
2023-05-24T22:50:34.185Z,2.55
2023-05-24T22:53:04.551Z,2.58
2023-05-24T22:55:34.969Z,3.53
2023-05-24T22:58:05.359Z,2.42
2023-05-24T23:00:38.389Z,3.50
2023-05-24T23:03:09.063Z,3.13
2023-05-24T23:05:41.503Z,2.55
2023-05-24T23:08:13.173Z,2.17
2023-05-24T23:10:45.915Z,3.03
2023-05-24T23:13:16.913Z,2.47
2023-05-24T23:18:22.394Z,3.75
2023-05-24T23:20:54.490Z,2.53
2023-05-24T23:23:25.055Z,3.45
2023-05-24T23:25:55.527Z,2.53
2023-05-24T23:28:25.910Z,2.58
2023-05-24T23:30:56.521Z,3.67
2023-05-24T23:33:29.496Z,3.03
2023-05-24T23:35:59.896Z,2.90
2023-05-24T23:38:30.259Z,3.15
2023-05-24T23:41:00.917Z,3.05
2023-05-24T23:43:31.399Z,3.45
2023-05-24T23:46:01.783Z,2.72
2023-05-24T23:48:34.711Z,3.45
2023-05-24T23:51:05.070Z,2.78
2023-05-24T23:53:35.427Z,2.88
2023-05-24T23:56:05.930Z,2.20
2023-05-24T23:58:37.869Z,2.47
